Time;durP1;ratioP1;P1;durP2;ratioP2;P2;SDS_P1;SDS_P2;PMS_P1;PMS_P2;Temp;Humidity;BMP_temperature;BMP_pressure;BME280_temperature;BME280_humidity;BME280_pressure;Samples;Min_cycle;Max_cycle;Signal;HPM_P1;HPM_P2
2022/04/07 00:01:43;;;;;;;3.72;3.53;;;9.30;90.00;;;;;;5137554;27;20289;-58
2022/04/07 00:04:10;;;;;;;3.90;3.60;;;9.30;89.80;;;;;;5137370;27;20758;-57
2022/04/07 00:06:37;;;;;;;4.10;3.70;;;9.40;89.50;;;;;;5137295;27;20241;-57
2022/04/07 00:09:06;;;;;;;3.33;3.13;;;9.40;89.10;;;;;;5137356;27;20203;-57
2022/04/07 00:11:33;;;;;;;4.30;3.22;;;9.40;89.20;;;;;;5136387;27;20224;-57
2022/04/07 00:13:59;;;;;;;3.33;3.13;;;9.40;88.80;;;;;;5137157;27;20612;-57
2022/04/07 00:16:26;;;;;;;3.30;3.10;;;9.40;88.70;;;;;;5137109;27;20649;-57
2022/04/07 00:18:53;;;;;;;3.22;3.03;;;9.50;88.50;;;;;;5137069;27;20333;-57
2022/04/07 00:21:26;;;;;;;3.35;3.10;;;9.40;88.10;;;;;;5136969;27;20716;-57
2022/04/07 00:23:53;;;;;;;3.20;2.90;;;9.40;88.30;;;;;;5137032;27;20661;-57
2022/04/07 00:26:21;;;;;;;3.10;2.90;;;9.40;88.30;;;;;;5137056;27;20209;-57
2022/04/07 00:28:51;;;;;;;2.90;2.60;;;9.30;88.30;;;;;;5135632;27;20671;-57
2022/04/07 00:31:18;;;;;;;2.70;2.55;;;9.30;88.30;;;;;;5136699;27;20237;-57
2022/04/07 00:33:44;;;;;;;2.70;2.50;;;9.30;88.40;;;;;;5136619;27;20277;-58
2022/04/07 00:36:11;;;;;;;2.70;2.50;;;9.40;88.50;;;;;;5136807;27;20692;-57
2022/04/07 00:38:38;;;;;;;2.70;2.50;;;9.40;88.40;;;;;;5136246;27;20289;-57
2022/04/07 00:41:05;;;;;;;2.53;2.40;;;9.40;88.60;;;;;;5136640;27;20252;-58
2022/04/07 00:43:36;;;;;;;2.80;2.60;;;9.40;88.40;;;;;;5135411;27;20205;-58
2022/04/07 00:46:04;;;;;;;2.85;2.55;;;9.40;88.60;;;;;;5136814;27;20202;-57
2022/04/07 00:48:35;;;;;;;2.72;2.40;;;9.40;88.90;;;;;;5136417;27;20677;-57
2022/04/07 00:51:03;;;;;;;2.30;2.10;;;9.50;89.00;;;;;;5136363;27;20198;-57
2022/04/07 00:53:30;;;;;;;2.28;2.10;;;9.50;88.60;;;;;;5136520;27;20205;-58
2022/04/07 00:56:00;;;;;;;1.75;1.65;;;9.40;88.60;;;;;;5136420;27;20221;-58
2022/04/07 00:58:29;;;;;;;2.80;2.60;;;9.40;88.80;;;;;;5135062;27;20222;-58
2022/04/07 01:00:58;;;;;;;4.30;3.63;;;9.40;89.00;;;;;;5136102;27;20234;-59
2022/04/07 01:03:25;;;;;;;3.60;3.40;;;9.40;89.50;;;;;;5136196;27;20679;-58
2022/04/07 01:05:52;;;;;;;3.63;3.33;;;9.20;89.80;;;;;;5136205;27;20278;-58
2022/04/07 01:08:19;;;;;;;2.90;2.70;;;9.20;90.50;;;;;;5136364;27;20245;-58
2022/04/07 01:10:47;;;;;;;2.58;2.38;;;9.10;90.40;;;;;;5136195;27;20217;-58
2022/04/07 01:13:15;;;;;;;3.25;3.05;;;9.00;90.80;;;;;;5135069;27;20286;-58
2022/04/07 01:15:42;;;;;;;3.15;2.95;;;9.00;91.10;;;;;;5135996;27;20210;-58
2022/04/07 01:18:10;;;;;;;3.30;3.00;;;9.10;91.40;;;;;;5135975;27;20229;-57
2022/04/07 01:20:38;;;;;;;3.20;3.00;;;9.00;91.00;;;;;;5135669;27;20238;-58
2022/04/07 01:23:07;;;;;;;2.88;2.67;;;9.00;91.40;;;;;;5136023;27;20210;-57
2022/04/07 01:25:37;;;;;;;2.97;2.78;;;9.00;91.20;;;;;;5135854;27;20296;-57
2022/04/07 01:28:04;;;;;;;2.55;2.35;;;9.10;91.10;;;;;;5134369;27;20205;-57
2022/04/07 01:30:31;;;;;;;3.15;2.85;;;9.00;90.90;;;;;;5135696;27;20231;-58
2022/04/07 01:33:00;;;;;;;2.70;2.50;;;9.00;91.00;;;;;;5135749;27;20293;-58
2022/04/07 01:35:28;;;;;;;2.88;2.67;;;9.00;90.60;;;;;;5135568;27;20203;-58
2022/04/07 01:37:57;;;;;;;2.90;2.60;;;9.00;90.70;;;;;;5135512;27;20198;-57
2022/04/07 01:40:29;;;;;;;2.60;2.40;;;9.00;90.90;;;;;;5135591;27;20315;-57
2022/04/07 01:42:58;;;;;;;3.38;2.72;;;9.00;91.00;;;;;;5134095;27;20203;-57
2022/04/07 01:45:27;;;;;;;2.88;2.67;;;9.00;90.80;;;;;;5135441;27;20289;-58
2022/04/07 01:47:55;;;;;;;3.13;2.83;;;9.00;90.90;;;;;;5135504;27;20195;-58
2022/04/07 01:50:25;;;;;;;2.40;2.20;;;9.00;90.90;;;;;;5134239;27;20210;-57
2022/04/07 01:52:53;;;;;;;2.80;2.60;;;9.00;90.80;;;;;;5135390;27;20203;-58
2022/04/07 01:55:21;;;;;;;2.80;2.60;;;9.00;90.20;;;;;;5135118;27;20198;-57
2022/04/07 01:57:49;;;;;;;2.80;2.60;;;8.90;90.30;;;;;;5133852;27;20209;-57
2022/04/07 02:00:18;;;;;;;2.72;2.40;;;9.00;90.70;;;;;;5135115;27;20249;-57
2022/04/07 02:02:46;;;;;;;5.25;2.85;;;9.10;90.60;;;;;;5135178;27;20207;-57
2022/04/07 02:05:13;;;;;;;2.70;2.50;;;9.20;90.50;;;;;;5134934;27;20199;-58
2022/04/07 02:07:42;;;;;;;4.85;2.45;;;9.20;89.70;;;;;;5134889;27;20303;-58
2022/04/07 02:10:10;;;;;;;2.40;2.20;;;9.20;89.50;;;;;;5134970;27;20301;-57
2022/04/07 02:12:37;;;;;;;2.70;2.50;;;9.30;89.60;;;;;;5133710;27;20585;-57
2022/04/07 02:15:05;;;;;;;2.90;2.70;;;9.30;89.30;;;;;;5134999;27;20195;-57
2022/04/07 02:17:33;;;;;;;2.30;2.10;;;9.40;89.00;;;;;;5134757;27;20218;-57
2022/04/07 02:20:02;;;;;;;2.70;2.50;;;9.40;88.90;;;;;;5134658;27;20207;-58
2022/04/07 02:22:29;;;;;;;3.08;2.35;;;9.30;88.70;;;;;;5134699;27;20206;-58
2022/04/07 02:24:56;;;;;;;2.50;2.30;;;9.20;88.60;;;;;;5134787;27;20198;-57
2022/04/07 02:27:23;;;;;;;2.60;2.40;;;9.20;88.70;;;;;;5133566;27;20195;-59
2022/04/07 02:29:50;;;;;;;2.85;2.30;;;9.20;88.80;;;;;;5134484;27;20209;-58
2022/04/07 02:32:17;;;;;;;2.50;2.30;;;9.20;88.70;;;;;;5134389;27;20309;-56
2022/04/07 02:34:45;;;;;;;3.30;2.33;;;9.20;88.40;;;;;;5134442;27;20716;-56
2022/04/07 02:37:12;;;;;;;2.40;2.20;;;9.20;88.10;;;;;;5134545;27;20199;-56
2022/04/07 02:39:39;;;;;;;2.80;2.25;;;9.20;88.50;;;;;;5134502;27;20289;-57
2022/04/07 02:42:06;;;;;;;2.25;2.08;;;9.30;88.20;;;;;;5132932;27;20235;-56
2022/04/07 02:44:33;;;;;;;2.58;2.38;;;9.30;87.90;;;;;;5134447;27;20199;-57
2022/04/07 02:47:00;;;;;;;2.30;2.20;;;9.40;87.60;;;;;;5134485;27;20195;-56
2022/04/07 02:49:26;;;;;;;2.58;2.38;;;9.40;87.60;;;;;;5133971;27;20748;-57
2022/04/07 02:51:55;;;;;;;2.35;2.15;;;9.30;87.10;;;;;;5134404;27;20213;-56
2022/04/07 02:54:21;;;;;;;2.10;1.95;;;9.20;87.20;;;;;;5134210;27;20237;-57
2022/04/07 02:56:48;;;;;;;2.33;2.22;;;9.10;86.90;;;;;;5132970;27;20205;-57
2022/04/07 02:59:15;;;;;;;2.47;2.28;;;8.90;87.30;;;;;;5134141;27;20667;-57
2022/04/07 03:01:43;;;;;;;2.20;2.10;;;8.90;86.70;;;;;;5133846;27;20731;-57
2022/04/07 03:04:10;;;;;;;2.40;2.30;;;8.80;85.70;;;;;;5133808;27;20653;-58
2022/04/07 03:06:37;;;;;;;2.40;2.30;;;8.70;85.00;;;;;;5133997;27;20287;-56
2022/04/07 03:09:05;;;;;;;2.30;2.20;;;8.70;85.40;;;;;;5134048;27;20201;-58
2022/04/07 03:11:32;;;;;;;3.13;2.80;;;8.60;85.00;;;;;;5133555;27;20301;-56
2022/04/07 03:13:59;;;;;;;2.85;2.75;;;8.50;85.00;;;;;;5133516;27;20286;-56
2022/04/07 03:16:25;;;;;;;2.83;2.55;;;8.50;85.10;;;;;;5133912;27;20229;-57
2022/04/07 03:18:52;;;;;;;2.97;2.78;;;8.50;85.10;;;;;;5133686;27;20241;-57
2022/04/07 03:21:19;;;;;;;2.70;2.60;;;8.50;84.60;;;;;;5133679;27;20260;-56
2022/04/07 03:23:46;;;;;;;2.50;2.40;;;8.60;84.60;;;;;;5133901;27;20209;-57
2022/04/07 03:26:14;;;;;;;2.80;2.60;;;8.60;84.50;;;;;;5133837;27;20226;-57
2022/04/07 03:28:41;;;;;;;5.63;3.08;;;8.60;84.30;;;;;;5132522;27;20286;-57
2022/04/07 03:31:08;;;;;;;2.80;2.70;;;8.70;84.00;;;;;;5133415;27;20776;-58
2022/04/07 03:33:35;;;;;;;3.10;3.00;;;8.60;83.80;;;;;;5133753;27;20286;-57
2022/04/07 03:36:02;;;;;;;3.00;2.80;;;8.60;83.80;;;;;;5133580;27;20226;-57
2022/04/07 03:38:29;;;;;;;3.40;3.20;;;8.60;83.40;;;;;;5133763;27;20203;-58
2022/04/07 03:40:56;;;;;;;3.10;2.90;;;8.60;83.50;;;;;;5133462;27;20254;-58
2022/04/07 03:43:24;;;;;;;3.45;3.20;;;8.60;83.40;;;;;;5132306;27;20285;-57
2022/04/07 03:45:51;;;;;;;3.40;3.17;;;8.60;83.40;;;;;;5133455;27;20198;-58
2022/04/07 03:48:18;;;;;;;3.83;2.97;;;8.50;83.70;;;;;;5133558;27;20199;-58
2022/04/07 03:50:45;;;;;;;2.90;2.70;;;8.50;84.40;;;;;;5133357;27;20247;-57
2022/04/07 03:53:12;;;;;;;3.00;2.90;;;8.40;85.00;;;;;;5133638;27;20238;-58
2022/04/07 03:55:39;;;;;;;2.92;2.83;;;8.40;85.50;;;;;;5133500;27;20209;-59
2022/04/07 03:58:06;;;;;;;2.83;2.63;;;8.40;85.40;;;;;;5132196;27;20198;-58
2022/04/07 04:00:34;;;;;;;2.85;2.75;;;8.40;85.50;;;;;;5133253;27;20203;-57
2022/04/07 04:03:01;;;;;;;3.08;2.80;;;8.40;85.20;;;;;;5133493;27;20209;-57
2022/04/07 04:05:28;;;;;;;3.00;2.90;;;8.50;84.90;;;;;;5133335;27;20234;-58
2022/04/07 04:07:56;;;;;;;3.30;3.10;;;8.50;84.40;;;;;;5133374;27;20297;-57
2022/04/07 04:10:23;;;;;;;3.10;3.00;;;8.50;84.40;;;;;;5133367;27;20210;-56
2022/04/07 04:12:50;;;;;;;3.60;3.40;;;8.60;84.10;;;;;;5132063;27;20230;-57
2022/04/07 04:15:17;;;;;;;3.67;3.47;;;8.60;84.30;;;;;;5136980;27;20229;-57
2022/04/07 04:17:45;;;;;;;3.50;3.40;;;8.50;84.70;;;;;;5137248;27;20285;-59
2022/04/07 04:20:12;;;;;;;3.40;3.20;;;8.40;85.30;;;;;;5137021;27;20236;-58
2022/04/07 04:22:39;;;;;;;3.38;3.08;;;8.40;85.70;;;;;;5137240;27;20222;-59
2022/04/07 04:25:08;;;;;;;3.78;3.47;;;8.40;85.40;;;;;;5136919;27;20207;-57
2022/04/07 04:27:34;;;;;;;3.60;3.40;;;8.50;84.20;;;;;;5135568;27;20240;-60
2022/04/07 04:30:02;;;;;;;3.20;3.10;;;8.50;83.80;;;;;;5136766;27;20209;-57
2022/04/07 04:32:28;;;;;;;4.07;3.78;;;8.60;83.80;;;;;;5137037;27;20206;-57
2022/04/07 04:34:57;;;;;;;4.03;3.72;;;8.60;83.40;;;;;;5136708;27;20290;-57
2022/04/07 04:37:26;;;;;;;3.88;3.58;;;8.70;83.30;;;;;;5136797;27;20203;-57
2022/04/07 04:39:53;;;;;;;4.05;3.85;;;8.70;83.30;;;;;;5136739;27;20206;-57
2022/04/07 04:42:20;;;;;;;3.80;3.60;;;8.70;83.20;;;;;;5135183;27;20238;-58
2022/04/07 04:44:47;;;;;;;4.03;3.83;;;8.70;83.10;;;;;;5136804;27;20226;-57
2022/04/07 04:47:14;;;;;;;3.80;3.53;;;8.70;83.10;;;;;;5136739;27;20199;-58
2022/04/07 04:49:42;;;;;;;4.40;3.97;;;8.80;82.40;;;;;;5136497;27;20230;-57
2022/04/07 04:52:11;;;;;;;3.50;3.40;;;8.80;82.10;;;;;;5136509;27;20649;-57
2022/04/07 04:54:38;;;;;;;4.03;3.83;;;8.70;82.60;;;;;;5136323;27;20199;-59
2022/04/07 04:57:06;;;;;;;3.92;3.83;;;8.70;82.50;;;;;;5135279;27;20198;-60
2022/04/07 04:59:33;;;;;;;4.50;4.30;;;8.80;82.00;;;;;;5136412;27;20980;-57
2022/04/07 05:02:00;;;;;;;4.10;3.90;;;8.80;82.10;;;;;;5136327;27;20226;-57
2022/04/07 05:04:27;;;;;;;3.97;3.80;;;8.80;81.80;;;;;;5136337;27;20209;-57
2022/04/07 05:06:54;;;;;;;3.92;3.72;;;8.90;81.70;;;;;;5136324;27;20209;-58
2022/04/07 05:09:22;;;;;;;4.00;3.80;;;8.90;81.90;;;;;;5136185;27;20230;-57
2022/04/07 05:11:49;;;;;;;3.63;3.45;;;8.80;81.60;;;;;;5134665;27;20728;-57
2022/04/07 05:14:16;;;;;;;5.00;4.60;;;8.80;82.10;;;;;;5136160;27;20297;-58
2022/04/07 05:16:43;;;;;;;4.15;3.85;;;8.80;82.00;;;;;;5136087;27;20314;-58
2022/04/07 05:19:09;;;;;;;4.60;4.32;;;8.80;82.30;;;;;;5136015;27;20279;-58
2022/04/07 05:21:36;;;;;;;4.00;3.80;;;8.80;83.10;;;;;;5135614;27;20238;-58
2022/04/07 05:24:03;;;;;;;3.63;3.42;;;8.70;83.20;;;;;;5135812;27;20227;-58
2022/04/07 05:26:31;;;;;;;4.75;4.53;;;8.70;84.10;;;;;;5135730;27;20194;-57
2022/04/07 05:28:58;;;;;;;3.95;3.75;;;8.60;84.00;;;;;;5135061;27;20628;-57
2022/04/07 05:31:27;;;;;;;3.95;3.75;;;8.50;84.50;;;;;;5135563;27;20663;-57
2022/04/07 05:33:54;;;;;;;3.47;3.38;;;8.50;84.40;;;;;;5135713;27;20203;-57
2022/04/07 05:36:20;;;;;;;2.90;2.70;;;8.60;84.00;;;;;;5135220;27;20238;-58
2022/04/07 05:38:47;;;;;;;3.90;3.70;;;8.70;84.10;;;;;;5135595;27;20203;-57
2022/04/07 05:41:14;;;;;;;3.35;3.25;;;8.70;83.80;;;;;;5135371;27;20680;-58
2022/04/07 05:43:42;;;;;;;3.45;3.35;;;8.70;83.70;;;;;;5134157;27;20297;-58
2022/04/07 05:46:09;;;;;;;3.90;3.70;;;8.70;82.90;;;;;;5135444;27;20230;-57
2022/04/07 05:48:36;;;;;;;3.60;3.40;;;8.80;83.20;;;;;;5135409;27;20249;-57
2022/04/07 05:51:03;;;;;;;3.65;3.45;;;8.80;83.20;;;;;;5135195;27;20199;-58
2022/04/07 05:53:30;;;;;;;2.80;2.70;;;8.90;82.70;;;;;;5135379;27;20235;-57
2022/04/07 05:55:58;;;;;;;4.50;4.07;;;8.90;82.10;;;;;;5135359;27;20203;-58
2022/04/07 05:58:25;;;;;;;3.72;3.53;;;8.90;81.80;;;;;;5133871;27;20199;-57
2022/04/07 06:00:53;;;;;;;4.18;4.05;;;9.00;81.40;;;;;;5135288;27;20206;-56
2022/04/07 06:03:20;;;;;;;3.80;3.65;;;9.10;81.10;;;;;;5135066;27;20293;-57
2022/04/07 06:05:52;;;;;;;4.38;4.20;;;9.20;81.10;;;;;;5134856;27;20298;-57
2022/04/07 06:08:19;;;;;;;4.55;4.35;;;9.20;79.70;;;;;;5135041;27;20225;-57
2022/04/07 06:10:46;;;;;;;4.70;4.40;;;9.30;80.50;;;;;;5135000;27;20228;-58
2022/04/07 06:13:14;;;;;;;4.75;4.55;;;9.40;79.70;;;;;;5133473;27;20251;-58
2022/04/07 06:15:41;;;;;;;4.20;4.10;;;9.40;80.00;;;;;;5134745;27;20219;-57
2022/04/07 06:18:10;;;;;;;5.05;4.85;;;9.40;78.90;;;;;;5134554;27;20203;-57
2022/04/07 06:20:36;;;;;;;4.65;4.50;;;9.50;78.50;;;;;;5134707;27;20202;-56
2022/04/07 06:23:03;;;;;;;5.00;4.70;;;9.50;78.30;;;;;;5134653;27;20262;-58
2022/04/07 06:25:30;;;;;;;5.00;4.80;;;9.50;78.60;;;;;;5134571;27;20214;-57
2022/04/07 06:27:59;;;;;;;5.30;5.10;;;9.60;78.70;;;;;;5133319;27;20198;-57
2022/04/07 06:30:26;;;;;;;5.15;4.90;;;9.60;78.20;;;;;;5134306;27;20231;-57
2022/04/07 06:32:53;;;;;;;5.03;4.80;;;9.70;77.60;;;;;;5134525;27;20213;-57
2022/04/07 06:35:21;;;;;;;5.20;4.95;;;9.70;77.10;;;;;;5134418;27;20198;-57
2022/04/07 06:37:51;;;;;;;5.32;5.13;;;9.80;77.50;;;;;;5134009;27;20203;-58
2022/04/07 06:40:20;;;;;;;4.15;3.95;;;9.80;76.70;;;;;;5134311;27;20571;-58
2022/04/07 06:42:47;;;;;;;6.40;5.10;;;9.70;77.00;;;;;;5133074;27;20230;-57
2022/04/07 06:45:13;;;;;;;5.25;5.05;;;9.60;77.80;;;;;;5134151;27;20854;-58
2022/04/07 06:47:41;;;;;;;5.40;5.15;;;9.60;76.90;;;;;;5134208;27;20199;-57
2022/04/07 06:50:10;;;;;;;5.53;5.32;;;9.70;77.40;;;;;;5133866;27;20634;-58
2022/04/07 06:52:39;;;;;;;5.22;5.03;;;9.70;76.70;;;;;;5134110;27;20234;-58
2022/04/07 06:55:07;;;;;;;4.97;4.78;;;9.70;76.70;;;;;;5134214;27;20203;-57
2022/04/07 06:57:48;;;;;;;5.50;5.30;;;9.80;76.70;;;;;;5132705;27;20283;-58
2022/04/07 07:00:17;;;;;;;5.10;4.90;;;9.80;76.30;;;;;;5134021;27;20213;-58
2022/04/07 07:02:45;;;;;;;4.82;4.72;;;9.80;76.70;;;;;;5133987;27;20237;-56
2022/04/07 07:05:12;;;;;;;5.15;4.90;;;9.80;76.20;;;;;;5134044;27;20213;-57
2022/04/07 07:07:40;;;;;;;5.30;5.10;;;9.80;76.10;;;;;;5134017;27;20297;-56
2022/04/07 07:10:08;;;;;;;5.15;5.05;;;9.80;76.40;;;;;;5133854;27;20294;-58
2022/04/07 07:12:35;;;;;;;5.20;5.00;;;9.90;76.00;;;;;;5132719;27;20206;-57
2022/04/07 07:15:02;;;;;;;5.43;5.22;;;9.90;76.10;;;;;;5133923;27;20222;-58
2022/04/07 07:17:33;;;;;;;5.10;4.90;;;9.90;76.10;;;;;;5133907;27;20230;-57
2022/04/07 07:20:04;;;;;;;4.70;4.50;;;9.90;76.70;;;;;;5133712;27;20263;-58
2022/04/07 07:22:31;;;;;;;4.90;4.70;;;9.90;76.00;;;;;;5133871;27;20742;-57
2022/04/07 07:25:00;;;;;;;5.20;5.00;;;9.90;76.60;;;;;;5133629;27;20285;-56
2022/04/07 07:27:26;;;;;;;5.32;5.13;;;10.00;76.30;;;;;;5132406;27;20210;-57
2022/04/07 07:29:53;;;;;;;5.43;5.22;;;10.10;75.50;;;;;;5133690;27;20220;-57
2022/04/07 07:32:20;;;;;;;3.83;3.63;;;10.10;75.60;;;;;;5133705;27;20202;-57
2022/04/07 07:34:47;;;;;;;5.43;5.22;;;10.10;75.80;;;;;;5133638;27;20208;-58
2022/04/07 07:37:18;;;;;;;5.80;5.60;;;10.20;74.80;;;;;;5133579;27;20571;-56
2022/04/07 07:39:45;;;;;;;5.60;5.40;;;10.20;75.00;;;;;;5133722;27;20199;-57
2022/04/07 07:42:13;;;;;;;5.47;5.22;;;10.30;75.00;;;;;;5132231;27;20582;-57
2022/04/07 07:44:40;;;;;;;5.97;5.78;;;10.40;75.10;;;;;;5133649;27;20245;-55
2022/04/07 07:47:07;;;;;;;6.00;5.80;;;10.50;74.70;;;;;;5133644;27;20671;-57
2022/04/07 07:49:35;;;;;;;6.57;6.28;;;10.60;73.90;;;;;;5136094;27;20208;-58
2022/04/07 07:52:02;;;;;;;5.72;5.53;;;10.60;74.00;;;;;;5137368;27;20285;-57
2022/04/07 07:54:29;;;;;;;5.60;5.40;;;10.60;74.10;;;;;;5137651;27;20281;-57
2022/04/07 07:56:55;;;;;;;6.00;5.80;;;10.70;74.40;;;;;;5136353;27;20206;-57
2022/04/07 07:59:24;;;;;;;4.65;4.45;;;10.70;73.60;;;;;;5137552;27;20226;-58
2022/04/07 08:01:50;;;;;;;6.18;5.70;;;10.60;74.00;;;;;;5137384;27;20211;-57
2022/04/07 08:04:17;;;;;;;6.40;6.20;;;10.60;73.70;;;;;;5137422;27;20198;-58
2022/04/07 08:06:44;;;;;;;5.70;5.50;;;10.60;73.60;;;;;;5137065;27;20669;-56
2022/04/07 08:09:13;;;;;;;6.07;5.88;;;10.60;73.90;;;;;;5137278;27;20252;-57
2022/04/07 08:11:41;;;;;;;5.22;4.93;;;10.70;73.40;;;;;;5135933;27;20199;-56
2022/04/07 08:14:08;;;;;;;6.60;6.20;;;10.70;73.30;;;;;;5137150;27;20257;-58
2022/04/07 08:16:37;;;;;;;6.82;6.53;;;10.70;73.40;;;;;;5137094;27;20293;-57
2022/04/07 08:19:05;;;;;;;4.38;4.18;;;10.80;74.20;;;;;;5136973;27;20740;-56
2022/04/07 08:21:33;;;;;;;6.35;6.15;;;10.90;73.10;;;;;;5137072;27;20233;-56
2022/04/07 08:24:00;;;;;;;6.30;6.10;;;11.00;72.90;;;;;;5137025;27;20237;-55
2022/04/07 08:26:27;;;;;;;6.60;6.35;;;11.00;72.80;;;;;;5136999;27;20222;-57
2022/04/07 08:28:54;;;;;;;4.45;4.25;;;11.00;72.70;;;;;;5135627;27;20691;-57
2022/04/07 08:31:21;;;;;;;6.55;6.35;;;11.10;72.50;;;;;;5136691;27;20779;-56
2022/04/07 08:33:49;;;;;;;6.72;6.43;;;11.10;72.30;;;;;;5136820;27;20238;-57
2022/04/07 08:36:16;;;;;;;6.90;6.50;;;11.10;72.30;;;;;;5136805;27;20209;-56
2022/04/07 08:38:43;;;;;;;6.60;6.40;;;11.10;72.00;;;;;;5136810;27;20620;-56
2022/04/07 08:41:12;;;;;;;7.00;6.70;;;11.10;72.20;;;;;;5136655;27;20209;-56
2022/04/07 08:43:40;;;;;;;7.00;6.70;;;11.10;72.50;;;;;;5135499;27;20231;-57
2022/04/07 08:46:08;;;;;;;6.25;5.95;;;11.20;71.90;;;;;;5136749;27;20289;-57
2022/04/07 08:48:38;;;;;;;5.28;4.97;;;11.30;72.00;;;;;;5136586;27;20201;-57
2022/04/07 08:51:08;;;;;;;7.30;7.00;;;11.30;72.00;;;;;;5136373;27;20201;-58
2022/04/07 08:53:35;;;;;;;6.70;6.50;;;11.30;72.20;;;;;;5136530;27;20203;-56
2022/04/07 08:56:05;;;;;;;8.18;7.60;;;11.50;72.00;;;;;;5136550;27;20201;-58
2022/04/07 08:58:32;;;;;;;6.85;6.57;;;11.60;71.20;;;;;;5135343;27;20201;-56
2022/04/07 09:01:00;;;;;;;7.47;7.18;;;11.70;71.00;;;;;;5135973;27;20203;-57
2022/04/07 09:03:27;;;;;;;6.90;6.70;;;11.80;70.70;;;;;;5136283;27;20250;-57
2022/04/07 09:05:55;;;;;;;6.80;6.60;;;11.80;70.00;;;;;;5136202;27;20209;-57
2022/04/07 09:08:30;;;;;;;6.68;6.35;;;11.80;69.40;;;;;;5136263;27;20209;-58
2022/04/07 09:10:58;;;;;;;7.30;7.00;;;11.70;69.60;;;;;;5136152;27;20198;-59
2022/04/07 09:13:28;;;;;;;7.38;7.18;;;11.70;69.10;;;;;;5134680;27;20240;-57
2022/04/07 09:15:55;;;;;;;6.55;6.35;;;11.70;69.70;;;;;;5135982;27;20199;-57
2022/04/07 09:18:26;;;;;;;7.32;6.80;;;11.70;69.60;;;;;;5136033;27;20205;-58
2022/04/07 09:20:53;;;;;;;4.15;3.95;;;11.70;69.50;;;;;;5135835;27;20278;-58
2022/04/07 09:23:20;;;;;;;6.90;6.60;;;11.80;69.40;;;;;;5135961;27;20582;-60
2022/04/07 09:25:50;;;;;;;5.90;5.70;;;11.80;69.80;;;;;;5135760;27;20281;-57
2022/04/07 09:28:28;;;;;;;7.70;7.40;;;11.80;69.80;;;;;;5134526;27;20210;-58
2022/04/07 09:30:57;;;;;;;6.75;6.35;;;11.70;69.40;;;;;;5135717;27;20279;-58
2022/04/07 09:33:26;;;;;;;7.40;7.20;;;11.60;69.20;;;;;;5135737;27;20207;-57
2022/04/07 09:36:00;;;;;;;7.38;6.88;;;11.50;69.60;;;;;;5135625;27;20202;-57
2022/04/07 09:38:27;;;;;;;7.40;7.20;;;11.40;70.40;;;;;;5135472;27;20203;-57
2022/04/07 09:41:03;;;;;;;7.65;7.45;;;11.40;70.10;;;;;;5135605;27;20302;-58
2022/04/07 09:43:30;;;;;;;7.47;7.20;;;11.30;72.10;;;;;;5134141;27;20286;-58
2022/04/07 09:45:57;;;;;;;7.50;7.20;;;11.00;74.40;;;;;;5135501;27;20203;-57
2022/04/07 09:48:27;;;;;;;5.65;5.45;;;10.70;74.70;;;;;;5135524;27;20206;-58
2022/04/07 09:51:04;;;;;;;5.38;5.18;;;10.70;74.40;;;;;;5135201;27;20206;-58
2022/04/07 09:53:38;;;;;;;6.90;6.60;;;10.80;75.20;;;;;;5135300;27;20282;-57
2022/04/07 09:56:07;;;;;;;7.00;6.70;;;10.90;73.90;;;;;;5135139;27;20202;-59
2022/04/07 09:58:36;;;;;;;6.65;6.18;;;11.00;73.40;;;;;;5134058;27;20206;-59
2022/04/07 10:01:04;;;;;;;6.25;6.05;;;11.10;73.40;;;;;;5135150;27;20214;-58
2022/04/07 10:03:32;;;;;;;6.88;6.68;;;11.30;73.60;;;;;;5135005;27;20318;-59
2022/04/07 10:06:00;;;;;;;7.00;6.68;;;11.50;72.00;;;;;;5134868;27;20203;-57
2022/04/07 10:08:27;;;;;;;6.80;6.35;;;11.50;71.70;;;;;;5135134;27;20565;-56
2022/04/07 10:10:55;;;;;;;4.95;4.75;;;11.60;71.90;;;;;;5134301;27;20729;-57
2022/04/07 10:13:24;;;;;;;6.75;6.55;;;11.70;71.20;;;;;;5133571;27;20219;-57
2022/04/07 10:15:52;;;;;;;6.57;6.38;;;11.80;70.90;;;;;;5134746;27;20205;-56
2022/04/07 10:18:28;;;;;;;6.88;6.68;;;11.90;70.80;;;;;;5134914;27;20547;-56
2022/04/07 10:20:58;;;;;;;6.90;6.70;;;12.00;70.70;;;;;;5134456;27;20289;-58
2022/04/07 10:23:48;;;;;;;7.25;6.80;;;12.10;69.40;;;;;;5134698;27;20230;-56
2022/04/07 10:26:17;;;;;;;7.18;6.97;;;12.00;69.70;;;;;;5134707;27;20744;-57
2022/04/07 10:28:54;;;;;;;5.60;5.40;;;12.10;69.20;;;;;;5133238;27;20293;-57
2022/04/07 10:31:22;;;;;;;6.80;6.50;;;12.00;70.20;;;;;;5134537;27;20641;-59
2022/04/07 10:33:49;;;;;;;6.60;6.35;;;12.10;69.40;;;;;;5134485;27;20214;-59
2022/04/07 10:36:18;;;;;;;6.75;6.55;;;12.00;69.50;;;;;;5134463;27;20202;-58
2022/04/07 10:38:46;;;;;;;6.35;6.15;;;11.90;70.20;;;;;;5134422;27;20199;-58
2022/04/07 10:41:33;;;;;;;6.60;6.40;;;11.90;70.20;;;;;;5134409;27;20199;-58
2022/04/07 10:44:11;;;;;;;6.60;6.40;;;11.80;70.50;;;;;;5133425;27;20636;-58
2022/04/07 10:46:38;;;;;;;6.97;6.68;;;11.80;71.10;;;;;;5134284;27;20656;-58
2022/04/07 10:49:07;;;;;;;7.10;6.80;;;11.80;70.80;;;;;;5134157;27;20289;-58
2022/04/07 10:51:45;;;;;;;6.18;5.97;;;11.80;71.10;;;;;;5134063;27;20213;-58
2022/04/07 10:54:14;;;;;;;6.70;6.40;;;12.00;70.80;;;;;;5134311;27;20202;-59
2022/04/07 10:56:48;;;;;;;6.30;6.10;;;12.10;70.90;;;;;;5133016;27;20281;-58
2022/04/07 10:59:22;;;;;;;5.88;5.68;;;12.30;70.40;;;;;;5134081;27;20556;-59
2022/04/07 11:01:56;;;;;;;6.20;6.00;;;12.30;70.00;;;;;;5134107;27;20203;-59
2022/04/07 11:04:40;;;;;;;6.20;6.00;;;12.20;70.10;;;;;;5134061;27;20707;-57
2022/04/07 11:07:15;;;;;;;6.13;5.85;;;12.30;70.90;;;;;;5133841;27;20289;-59
2022/04/07 11:09:47;;;;;;;6.30;5.90;;;12.30;70.20;;;;;;5133979;27;20565;-59
2022/04/07 11:12:18;;;;;;;5.53;5.22;;;12.30;70.00;;;;;;5132317;27;20231;-57
2022/04/07 11:14:47;;;;;;;6.60;6.40;;;12.30;69.80;;;;;;5133737;27;20202;-59
2022/04/07 11:17:22;;;;;;;6.05;5.85;;;12.30;69.90;;;;;;5133843;27;20716;-58
2022/04/07 11:19:59;;;;;;;5.60;5.30;;;12.40;70.10;;;;;;5133776;27;20289;-59
2022/04/07 11:22:47;;;;;;;6.50;6.15;;;12.60;69.60;;;;;;5133669;27;20660;-58
2022/04/07 11:25:15;;;;;;;5.07;4.88;;;12.60;69.10;;;;;;5133760;27;20584;-59
2022/04/07 11:27:44;;;;;;;6.72;6.43;;;12.60;68.50;;;;;;5132541;27;20203;-59
2022/04/07 11:30:14;;;;;;;6.65;6.25;;;12.60;68.30;;;;;;5133672;27;20206;-59
2022/04/07 11:33:16;;;;;;;5.53;5.32;;;12.60;68.80;;;;;;5133657;27;20609;-59
2022/04/07 11:35:43;;;;;;;5.32;5.10;;;12.80;68.30;;;;;;5133580;27;20198;-58
2022/04/07 11:38:12;;;;;;;6.80;6.50;;;12.80;68.40;;;;;;5133651;27;20241;-58
2022/04/07 11:40:58;;;;;;;6.90;6.50;;;12.90;68.90;;;;;;5133642;27;20203;-58
2022/04/07 11:43:25;;;;;;;6.93;6.50;;;12.90;68.10;;;;;;5132198;27;20226;-56
2022/04/07 11:45:53;;;;;;;6.78;6.38;;;12.80;68.60;;;;;;5133541;27;20657;-59
2022/04/07 11:48:22;;;;;;;5.40;5.22;;;12.80;68.70;;;;;;5133645;27;20543;-57
2022/04/07 11:50:49;;;;;;;6.43;6.20;;;12.70;68.90;;;;;;5133210;27;20653;-60
2022/04/07 11:53:17;;;;;;;6.20;5.90;;;12.60;69.40;;;;;;5133558;27;20198;-59
2022/04/07 11:55:44;;;;;;;6.65;6.35;;;12.50;69.10;;;;;;5133648;27;20623;-59
2022/04/07 11:58:15;;;;;;;6.32;5.97;;;12.30;70.30;;;;;;5131946;27;20667;-57
2022/04/07 12:00:42;;;;;;;6.40;6.20;;;12.20;70.60;;;;;;5133521;27;20202;-57
2022/04/07 12:03:10;;;;;;;6.82;6.63;;;12.20;70.80;;;;;;5133371;27;20275;-59
2022/04/07 12:05:38;;;;;;;6.93;6.72;;;12.20;71.20;;;;;;5133306;27;20286;-58
2022/04/07 12:08:10;;;;;;;6.50;6.30;;;12.30;71.30;;;;;;5133286;27;20226;-58
2022/04/07 12:10:37;;;;;;;6.10;5.90;;;12.30;71.00;;;;;;5133359;27;20206;-59
2022/04/07 12:13:04;;;;;;;8.57;5.80;;;12.20;70.90;;;;;;5131911;27;20229;-59
2022/04/07 12:15:31;;;;;;;6.78;6.57;;;12.20;71.20;;;;;;5133397;27;20194;-55
2022/04/07 12:17:59;;;;;;;7.10;6.80;;;12.20;71.40;;;;;;5133379;27;20732;-58
2022/04/07 12:20:27;;;;;;;6.55;6.35;;;12.10;71.20;;;;;;5133300;27;20290;-58
2022/04/07 12:23:04;;;;;;;6.82;6.63;;;11.90;72.30;;;;;;5133139;27;20539;-58
2022/04/07 12:25:31;;;;;;;6.30;6.10;;;11.90;72.70;;;;;;5133258;27;20202;-58
2022/04/07 12:28:07;;;;;;;7.03;6.72;;;11.80;73.20;;;;;;5132072;27;20285;-58
2022/04/07 12:30:44;;;;;;;5.35;5.15;;;11.80;73.10;;;;;;5133033;27;20321;-57
2022/04/07 12:33:11;;;;;;;7.10;6.50;;;11.80;73.30;;;;;;5133276;27;20202;-57
2022/04/07 12:35:48;;;;;;;5.70;5.40;;;11.80;73.80;;;;;;5135636;27;20570;-58
2022/04/07 12:38:15;;;;;;;6.13;5.93;;;11.70;73.70;;;;;;5136625;27;20676;-58
2022/04/07 12:40:42;;;;;;;5.93;5.72;;;11.60;74.10;;;;;;5136910;27;20283;-58
2022/04/07 12:43:09;;;;;;;5.20;5.00;;;11.60;74.50;;;;;;5135538;27;20202;-57
2022/04/07 12:45:36;;;;;;;5.00;4.82;;;11.70;73.80;;;;;;5136744;27;20294;-58
2022/04/07 12:48:07;;;;;;;6.50;6.00;;;11.70;73.80;;;;;;5136544;27;20230;-56
2022/04/07 12:50:35;;;;;;;6.03;5.82;;;11.70;73.90;;;;;;5136563;27;20207;-56
2022/04/07 12:53:03;;;;;;;6.05;5.85;;;11.80;74.20;;;;;;5136425;27;20653;-57
2022/04/07 12:55:36;;;;;;;6.40;6.20;;;11.80;73.40;;;;;;5136524;27;20202;-58
2022/04/07 12:58:04;;;;;;;6.03;5.80;;;11.70;73.70;;;;;;5134968;27;20228;-57
2022/04/07 13:00:33;;;;;;;5.20;5.00;;;11.80;74.20;;;;;;5136422;27;20210;-57